Necedah, Wisconsin
Current Conditions -  °F | °C
As of 8:58 PM on Wednesday 26 Nov 2014 (Local Time) from KVOK Reporting Station
Light Snow Light Snow  
Wind Chill: -9°   Ceiling: 1400
Heat Index: -5°   Visibility: 5mi
Dew Point: -5°   Wind: 6mph
Humidity: 100%   Direction: 300°WNW
Pressure: 30.21"   Gusts: NA
Location:  44.03°N, 90.07°W
Report Text: KVOK 270258Z AUTO 30005KT 5SM R27/4500FT -SN BR FEW009 OVC014 M05/M05 A3021 RMK AO2 SLP250 P0000 60000 T10481048 52005
Loading
Personal Weather Stations






























Interactive Weather Map New forecast layout! Learn more

10-Day Weather Forecast

Advertisements
Track Severe Weather on mobile